Time;durP1;ratioP1;P1;durP2;ratioP2;P2;SDS_P1;SDS_P2;PMS_P1;PMS_P2;Temp;Humidity;BMP_temperature;BMP_pressure;BME280_temperature;BME280_humidity;BME280_pressure;Samples;Min_cycle;Max_cycle;Signal;HPM_P1;HPM_P2
2021/10/18 00:01:46;;;;;;;8.45;3.50;;;10.40;91.80;;;;;;4933130;29;20090;-57
2021/10/18 00:04:13;;;;;;;8.52;3.67;;;10.40;91.80;;;;;;4934314;29;20052;-58
2021/10/18 00:06:40;;;;;;;6.75;3.90;;;10.40;91.80;;;;;;4940626;29;20130;-57
2021/10/18 00:09:07;;;;;;;6.30;3.75;;;10.40;91.90;;;;;;4932764;29;20063;-55
2021/10/18 00:11:38;;;;;;;9.68;3.45;;;10.50;91.90;;;;;;4931289;29;20051;-58
2021/10/18 00:14:06;;;;;;;9.20;4.10;;;10.40;91.90;;;;;;4929482;29;20083;-58
2021/10/18 00:16:34;;;;;;;10.45;3.88;;;10.50;91.90;;;;;;4935593;29;20160;-57
2021/10/18 00:19:02;;;;;;;6.07;4.07;;;10.50;92.00;;;;;;4932491;29;20047;-57
2021/10/18 00:21:29;;;;;;;5.43;3.85;;;10.40;91.90;;;;;;4937019;29;20094;-58
2021/10/18 00:23:55;;;;;;;7.60;3.67;;;10.30;92.00;;;;;;4931617;29;20100;-58
2021/10/18 00:26:22;;;;;;;8.82;3.92;;;10.40;92.10;;;;;;4938497;29;20079;-58
2021/10/18 00:28:49;;;;;;;6.90;4.00;;;10.30;92.10;;;;;;4935355;29;20078;-57
2021/10/18 00:31:16;;;;;;;5.65;3.78;;;10.30;92.10;;;;;;4937644;29;20467;-59
2021/10/18 00:33:43;;;;;;;8.38;4.03;;;10.30;92.00;;;;;;4934825;29;20094;-57
2021/10/18 00:36:09;;;;;;;5.32;3.70;;;10.30;92.10;;;;;;4933330;29;20154;-59
2021/10/18 00:38:36;;;;;;;6.20;3.92;;;10.30;92.10;;;;;;4934788;29;20074;-59
2021/10/18 00:41:03;;;;;;;5.97;3.30;;;10.10;92.00;;;;;;4928967;29;20123;-56
2021/10/18 00:43:30;;;;;;;7.75;3.80;;;10.30;92.00;;;;;;4933498;29;20071;-58
2021/10/18 00:45:56;;;;;;;6.38;3.55;;;10.30;92.00;;;;;;4932398;29;20075;-58
2021/10/18 00:48:23;;;;;;;8.18;3.70;;;10.20;91.90;;;;;;4933720;29;20451;-58
2021/10/18 00:50:55;;;;;;;9.18;3.35;;;10.20;91.90;;;;;;4935710;29;20135;-57
2021/10/18 00:53:25;;;;;;;6.25;3.40;;;10.20;91.90;;;;;;4943187;29;20058;-57
2021/10/18 00:55:53;;;;;;;8.52;3.70;;;10.20;92.10;;;;;;4934392;29;20075;-59
2021/10/18 00:58:21;;;;;;;4.25;3.35;;;10.20;92.10;;;;;;4616891;28;10001158;-57
2021/10/18 01:00:48;;;;;;;4.70;3.45;;;10.30;91.90;;;;;;4935409;29;20065;-58
2021/10/18 01:03:16;;;;;;;6.18;3.25;;;10.10;91.80;;;;;;4939875;29;20410;-57
2021/10/18 01:05:43;;;;;;;6.55;3.38;;;10.10;91.70;;;;;;4934000;29;20056;-57
2021/10/18 01:08:09;;;;;;;6.55;3.22;;;10.10;91.70;;;;;;4939654;29;20051;-57
2021/10/18 01:10:36;;;;;;;6.07;3.45;;;10.00;91.70;;;;;;4943228;29;20072;-58
2021/10/18 01:13:06;;;;;;;7.60;3.90;;;9.90;91.80;;;;;;4933574;29;20087;-58
2021/10/18 01:15:33;;;;;;;9.02;3.65;;;10.00;91.90;;;;;;4941371;29;20507;-59
2021/10/18 01:17:59;;;;;;;8.55;4.13;;;10.00;91.90;;;;;;4937889;29;20098;-56
2021/10/18 01:20:30;;;;;;;7.30;4.70;;;10.00;92.00;;;;;;4943612;29;20138;-57
2021/10/18 01:22:57;;;;;;;8.10;3.63;;;9.90;91.90;;;;;;4944533;29;20059;-59
2021/10/18 01:25:24;;;;;;;5.53;3.80;;;9.90;91.90;;;;;;4935107;29;20128;-57
2021/10/18 01:27:51;;;;;;;7.07;4.13;;;9.80;92.00;;;;;;4946688;29;20075;-56
2021/10/18 01:30:18;;;;;;;10.32;3.28;;;9.80;92.00;;;;;;4955336;28;20055;-57
2021/10/18 01:32:45;;;;;;;13.90;4.35;;;9.90;92.00;;;;;;4943657;29;20044;-55
2021/10/18 01:35:12;;;;;;;5.53;3.67;;;9.90;92.00;;;;;;4939861;29;20083;-58
2021/10/18 01:37:39;;;;;;;9.88;3.97;;;9.90;92.10;;;;;;4939706;29;20090;-57
2021/10/18 01:40:08;;;;;;;9.10;3.72;;;9.90;92.10;;;;;;4939859;29;20071;-57
2021/10/18 01:42:34;;;;;;;5.38;3.67;;;9.80;92.10;;;;;;4933834;29;20090;-59
2021/10/18 01:45:02;;;;;;;7.65;3.78;;;9.90;92.20;;;;;;4938819;29;20377;-57
2021/10/18 01:47:28;;;;;;;6.10;3.60;;;9.80;92.20;;;;;;4936744;29;20146;-56
2021/10/18 01:49:56;;;;;;;8.77;3.72;;;9.80;92.10;;;;;;4935080;29;20079;-58
2021/10/18 01:52:23;;;;;;;8.07;3.85;;;9.80;92.20;;;;;;4937781;29;20048;-58
2021/10/18 01:54:50;;;;;;;6.10;3.72;;;9.80;92.20;;;;;;4933577;29;20071;-56
2021/10/18 01:57:17;;;;;;;6.97;3.88;;;9.70;92.20;;;;;;4939390;29;20070;-57
2021/10/18 01:59:44;;;;;;;5.38;3.95;;;9.70;92.10;;;;;;4933372;29;20075;-58
2021/10/18 02:02:10;;;;;;;9.38;4.03;;;9.70;92.20;;;;;;4937254;29;20051;-56
2021/10/18 02:04:54;;;;;;;6.25;3.78;;;9.70;92.30;;;;;;4940031;29;20491;-57
2021/10/18 02:07:20;;;;;;;8.05;4.10;;;9.70;92.30;;;;;;4938379;29;20154;-58
2021/10/18 02:09:47;;;;;;;10.13;4.28;;;9.70;92.30;;;;;;4932922;28;20061;-55
2021/10/18 02:12:14;;;;;;;8.57;4.43;;;9.70;92.40;;;;;;4935916;29;20091;-58
2021/10/18 02:14:41;;;;;;;9.52;3.78;;;9.70;92.40;;;;;;4933747;29;20522;-57
2021/10/18 02:17:08;;;;;;;6.75;4.05;;;9.80;92.40;;;;;;4935347;29;20135;-57
2021/10/18 02:19:34;;;;;;;8.10;4.40;;;9.80;92.40;;;;;;4940394;29;20203;-56
2021/10/18 02:22:01;;;;;;;8.32;3.58;;;9.70;92.30;;;;;;4937895;29;20083;-57
2021/10/18 02:24:28;;;;;;;6.82;4.10;;;9.70;92.40;;;;;;4940709;29;20093;-57
2021/10/18 02:26:54;;;;;;;7.10;4.68;;;9.70;92.40;;;;;;4939963;29;20086;-56
2021/10/18 02:29:21;;;;;;;8.70;4.68;;;9.70;92.70;;;;;;4933437;29;20158;-56
2021/10/18 02:31:48;;;;;;;12.18;4.30;;;9.70;92.50;;;;;;4938509;29;20470;-55
2021/10/18 02:34:15;;;;;;;7.18;4.68;;;9.70;92.40;;;;;;4935183;29;20110;-56
2021/10/18 02:36:42;;;;;;;8.13;4.03;;;9.70;92.40;;;;;;4941828;29;20043;-59
2021/10/18 02:39:09;;;;;;;8.80;4.90;;;9.70;92.50;;;;;;4943348;29;20098;-58
2021/10/18 02:41:35;;;;;;;6.80;4.03;;;9.80;92.40;;;;;;4934201;29;20122;-58
2021/10/18 02:44:02;;;;;;;5.47;3.80;;;9.70;92.40;;;;;;4942713;29;20176;-55
2021/10/18 02:46:29;;;;;;;9.10;4.20;;;9.70;92.30;;;;;;4940714;29;20048;-56
2021/10/18 02:48:56;;;;;;;6.57;4.25;;;9.70;92.40;;;;;;4940888;29;20068;-55
2021/10/18 02:51:23;;;;;;;6.60;4.38;;;9.70;92.50;;;;;;4941340;29;20051;-57
2021/10/18 02:53:49;;;;;;;8.80;3.72;;;9.70;92.50;;;;;;4941048;29;20170;-59
2021/10/18 02:56:16;;;;;;;6.97;3.85;;;9.70;92.50;;;;;;4944901;28;20291;-55
2021/10/18 02:58:43;;;;;;;5.65;3.65;;;9.70;92.50;;;;;;4940298;29;20078;-55
2021/10/18 03:01:10;;;;;;;8.32;4.60;;;9.70;92.50;;;;;;4941895;29;20043;-57
2021/10/18 03:03:36;;;;;;;10.23;4.72;;;9.70;92.50;;;;;;4938189;29;20073;-58
2021/10/18 03:06:03;;;;;;;8.02;4.97;;;9.70;92.70;;;;;;4942809;29;20047;-57
2021/10/18 03:08:30;;;;;;;10.70;5.85;;;9.80;92.80;;;;;;4937216;29;20143;-56
2021/10/18 03:10:57;;;;;;;11.60;7.13;;;9.70;92.90;;;;;;4940589;29;20055;-56
2021/10/18 03:13:23;;;;;;;13.07;5.55;;;9.80;93.10;;;;;;4930064;29;20043;-56
2021/10/18 03:15:51;;;;;;;14.30;7.45;;;9.80;93.30;;;;;;4937181;29;20443;-57
2021/10/18 03:18:18;;;;;;;13.43;7.55;;;9.90;93.50;;;;;;4939369;29;20047;-57
2021/10/18 03:20:45;;;;;;;19.00;8.88;;;10.00;93.80;;;;;;4938582;29;20089;-57
2021/10/18 03:23:11;;;;;;;12.75;7.30;;;10.10;94.00;;;;;;4937479;29;20162;-55
2021/10/18 03:25:39;;;;;;;15.55;7.80;;;10.20;93.90;;;;;;4939078;28;20121;-56
2021/10/18 03:28:06;;;;;;;13.18;8.25;;;10.30;93.90;;;;;;4933810;29;20404;-55
2021/10/18 03:30:33;;;;;;;17.35;8.50;;;10.40;94.00;;;;;;4931897;29;20055;-55
2021/10/18 03:32:59;;;;;;;20.98;10.27;;;10.50;94.20;;;;;;4932872;29;20128;-56
2021/10/18 03:35:26;;;;;;;17.25;10.02;;;10.60;94.30;;;;;;4935009;28;20086;-56
2021/10/18 03:37:53;;;;;;;18.30;10.07;;;10.70;94.30;;;;;;4950408;28;20055;-54
2021/10/18 03:40:20;;;;;;;17.27;10.10;;;10.80;94.50;;;;;;4949836;28;20047;-59
2021/10/18 03:42:46;;;;;;;17.73;11.38;;;10.90;94.50;;;;;;4951832;28;20510;-56
2021/10/18 03:45:13;;;;;;;20.17;11.95;;;11.00;94.60;;;;;;4935510;29;20087;-55
2021/10/18 03:47:40;;;;;;;20.55;12.45;;;11.10;94.70;;;;;;4935750;29;20043;-59
2021/10/18 03:50:08;;;;;;;24.50;12.82;;;11.20;94.80;;;;;;4934345;29;20081;-59
2021/10/18 03:52:35;;;;;;;30.17;14.15;;;11.30;95.10;;;;;;4937106;29;20102;-57
2021/10/18 03:55:02;;;;;;;24.25;14.18;;;11.40;95.60;;;;;;4934534;29;20086;-57
2021/10/18 03:57:28;;;;;;;23.98;15.25;;;11.50;95.20;;;;;;4933804;29;20052;-57
2021/10/18 03:59:55;;;;;;;23.88;14.05;;;11.60;95.20;;;;;;4927079;29;20071;-56
2021/10/18 04:02:22;;;;;;;24.75;13.82;;;11.60;95.20;;;;;;4925882;29;20056;-57
2021/10/18 04:04:49;;;;;;;27.50;14.50;;;11.70;95.20;;;;;;4932553;29;20051;-57
2021/10/18 04:07:16;;;;;;;21.25;12.20;;;11.80;95.30;;;;;;4933460;29;20090;-56
2021/10/18 04:09:45;;;;;;;27.58;14.32;;;11.80;95.30;;;;;;4935552;29;20094;-55
2021/10/18 04:12:12;;;;;;;20.02;12.70;;;11.90;95.30;;;;;;4933947;29;20051;-58
2021/10/18 04:14:39;;;;;;;21.60;12.80;;;11.90;95.40;;;;;;4934206;29;20110;-57
2021/10/18 04:17:06;;;;;;;23.30;12.35;;;12.00;95.20;;;;;;4932142;29;20052;-56
2021/10/18 04:19:32;;;;;;;25.08;12.13;;;12.00;95.40;;;;;;4931535;29;20048;-57
2021/10/18 04:21:59;;;;;;;24.23;13.65;;;12.10;95.30;;;;;;4935327;29;20051;-57
2021/10/18 04:24:26;;;;;;;22.85;12.20;;;12.20;95.40;;;;;;4932715;29;20079;-58
2021/10/18 04:26:53;;;;;;;22.67;11.20;;;12.20;95.40;;;;;;4938017;29;20095;-58
2021/10/18 04:29:19;;;;;;;23.58;11.73;;;12.20;95.30;;;;;;4956162;28;20137;-56
2021/10/18 04:31:46;;;;;;;23.00;11.70;;;12.30;95.30;;;;;;4938464;29;20044;-57
2021/10/18 04:34:13;;;;;;;24.27;12.68;;;12.30;95.40;;;;;;4936642;28;20083;-56
2021/10/18 04:36:39;;;;;;;24.70;12.70;;;12.40;95.50;;;;;;4937222;29;20551;-57
2021/10/18 04:39:06;;;;;;;20.98;11.43;;;12.30;95.40;;;;;;4935643;29;20090;-56
2021/10/18 04:41:33;;;;;;;18.58;10.68;;;12.40;95.30;;;;;;4933690;29;20543;-57
2021/10/18 04:44:00;;;;;;;22.30;12.30;;;12.40;95.30;;;;;;4932328;29;20044;-55
2021/10/18 04:46:26;;;;;;;23.23;13.05;;;12.40;95.30;;;;;;4936532;29;20086;-58
2021/10/18 04:48:53;;;;;;;20.30;11.23;;;12.40;95.40;;;;;;4935269;28;20052;-58
2021/10/18 04:51:20;;;;;;;23.38;12.07;;;12.40;95.30;;;;;;4939896;29;20047;-57
2021/10/18 04:53:47;;;;;;;22.52;12.23;;;12.40;95.10;;;;;;4938474;28;20445;-57
2021/10/18 04:56:14;;;;;;;19.88;11.25;;;12.40;95.00;;;;;;4942863;29;20075;-58
2021/10/18 04:58:40;;;;;;;17.65;11.40;;;12.40;95.10;;;;;;4939575;28;20138;-56
2021/10/18 05:01:07;;;;;;;21.15;11.70;;;12.40;95.10;;;;;;4935272;29;20074;-58
2021/10/18 05:03:34;;;;;;;16.88;11.43;;;12.30;95.20;;;;;;4943955;29;20079;-58
2021/10/18 05:06:01;;;;;;;25.50;13.45;;;12.40;95.10;;;;;;4942432;28;20317;-57
2021/10/18 05:08:29;;;;;;;23.25;11.75;;;12.30;95.00;;;;;;4941484;28;20152;-58
2021/10/18 05:10:56;;;;;;;17.95;11.48;;;12.30;95.00;;;;;;4943376;28;20142;-58
2021/10/18 05:13:23;;;;;;;22.17;12.90;;;12.30;95.00;;;;;;4932581;29;20047;-62
2021/10/18 05:15:52;;;;;;;21.77;11.48;;;12.30;95.10;;;;;;4943703;29;20059;-58
2021/10/18 05:18:20;;;;;;;18.75;11.25;;;12.20;95.10;;;;;;4940655;29;20052;-58
2021/10/18 05:20:48;;;;;;;19.55;11.45;;;12.30;95.00;;;;;;4943244;29;20133;-58
2021/10/18 05:23:15;;;;;;;20.13;12.02;;;12.20;94.90;;;;;;4938061;29;20075;-57
2021/10/18 05:25:42;;;;;;;21.05;11.40;;;12.20;94.90;;;;;;4942929;29;20058;-58
2021/10/18 05:28:09;;;;;;;19.45;12.02;;;12.20;94.80;;;;;;4938834;29;20075;-57
2021/10/18 05:30:36;;;;;;;21.38;12.98;;;12.20;94.90;;;;;;4941228;29;20051;-58
2021/10/18 05:33:03;;;;;;;23.15;13.55;;;12.20;94.90;;;;;;4939784;28;20055;-58
2021/10/18 05:35:29;;;;;;;16.70;10.63;;;12.20;95.00;;;;;;4938426;29;20067;-59
2021/10/18 05:37:56;;;;;;;21.17;13.13;;;12.20;95.00;;;;;;4937272;29;20527;-55
2021/10/18 05:40:23;;;;;;;18.83;11.70;;;12.20;94.80;;;;;;4933186;29;20158;-58
2021/10/18 05:42:51;;;;;;;22.05;13.02;;;12.20;94.70;;;;;;4933283;29;20562;-58
2021/10/18 05:45:18;;;;;;;20.50;12.50;;;12.10;94.70;;;;;;4936579;29;20085;-57
2021/10/18 05:47:54;;;;;;;20.88;13.32;;;12.10;94.70;;;;;;4938266;29;20093;-57
2021/10/18 05:50:22;;;;;;;22.77;12.63;;;12.00;94.80;;;;;;4935279;29;20083;-57
2021/10/18 05:52:49;;;;;;;21.02;13.57;;;12.00;94.80;;;;;;4929255;29;20083;-57
2021/10/18 05:55:16;;;;;;;20.33;14.38;;;12.00;94.90;;;;;;4938395;29;20071;-58
2021/10/18 05:57:47;;;;;;;23.45;13.60;;;12.00;94.90;;;;;;4935560;28;20051;-56
2021/10/18 06:00:14;;;;;;;25.85;14.20;;;12.00;94.90;;;;;;4936607;28;20079;-57
2021/10/18 06:02:41;;;;;;;20.38;13.38;;;12.00;94.90;;;;;;4936996;28;20139;-57
2021/10/18 06:05:08;;;;;;;20.25;11.77;;;12.00;95.00;;;;;;4952871;28;20081;-58
2021/10/18 06:07:35;;;;;;;21.90;14.25;;;12.00;95.00;;;;;;4948766;28;20043;-57
2021/10/18 06:10:03;;;;;;;20.90;12.00;;;12.00;95.10;;;;;;4936085;29;20079;-58
2021/10/18 06:12:30;;;;;;;23.35;12.43;;;12.10;95.00;;;;;;4936082;28;20668;-57
2021/10/18 06:14:57;;;;;;;21.73;12.30;;;12.00;94.90;;;;;;4935433;29;20180;-59
2021/10/18 06:17:23;;;;;;;21.20;12.35;;;12.00;94.90;;;;;;4936233;29;20130;-58
2021/10/18 06:19:50;;;;;;;26.15;12.50;;;12.10;94.80;;;;;;4935373;29;20058;-59
2021/10/18 06:22:17;;;;;;;24.63;12.98;;;12.00;94.80;;;;;;4936863;29;20063;-57
2021/10/18 06:24:45;;;;;;;22.15;14.55;;;12.00;94.80;;;;;;4928438;29;20047;-57
2021/10/18 06:27:12;;;;;;;22.10;13.93;;;12.00;95.30;;;;;;4935498;29;20054;-58
2021/10/18 06:29:39;;;;;;;20.35;12.98;;;12.00;95.20;;;;;;4935862;29;20060;-57
2021/10/18 06:32:06;;;;;;;17.25;12.27;;;12.00;95.00;;;;;;4934720;29;20048;-58
2021/10/18 06:34:33;;;;;;;17.95;12.20;;;12.00;94.90;;;;;;4935497;29;20086;-58
2021/10/18 06:37:00;;;;;;;22.67;12.25;;;12.00;94.90;;;;;;4953014;28;20078;-56
2021/10/18 06:39:27;;;;;;;25.13;13.98;;;12.00;94.90;;;;;;4935563;29;20054;-58
2021/10/18 06:41:54;;;;;;;19.63;12.50;;;12.00;94.90;;;;;;4937158;28;20134;-58
2021/10/18 06:44:20;;;;;;;19.85;12.48;;;11.90;95.00;;;;;;4932882;29;20165;-56
2021/10/18 06:46:47;;;;;;;19.85;12.77;;;12.00;95.10;;;;;;4936134;29;20130;-57
2021/10/18 06:49:14;;;;;;;21.00;12.07;;;12.10;95.20;;;;;;4945396;28;20102;-58
2021/10/18 06:51:48;;;;;;;23.58;12.85;;;12.00;95.20;;;;;;4593130;28;10000089;-58
2021/10/18 06:54:15;;;;;;;18.10;12.48;;;12.10;95.30;;;;;;4916716;29;20631;-60
2021/10/18 06:56:45;;;;;;;17.23;12.32;;;12.10;95.30;;;;;;4929054;29;20582;-59
2021/10/18 06:59:12;;;;;;;19.20;12.63;;;12.10;95.30;;;;;;4928170;29;20091;-58
2021/10/18 07:01:39;;;;;;;17.83;11.73;;;12.10;95.30;;;;;;4927663;29;20147;-58
2021/10/18 07:04:07;;;;;;;18.27;11.65;;;12.20;95.30;;;;;;4927470;29;20571;-58
2021/10/18 07:06:34;;;;;;;18.38;12.27;;;12.20;95.40;;;;;;4931267;29;20075;-58
2021/10/18 07:09:01;;;;;;;17.80;13.02;;;12.20;95.40;;;;;;4927281;29;20055;-57
2021/10/18 07:11:28;;;;;;;19.25;13.07;;;12.30;95.70;;;;;;4931656;29;20056;-58
2021/10/18 07:13:55;;;;;;;24.13;14.05;;;12.40;95.50;;;;;;4930622;29;20067;-58
2021/10/18 07:16:21;;;;;;;31.75;14.63;;;12.40;95.60;;;;;;4924049;29;20111;-57
2021/10/18 07:18:48;;;;;;;25.42;16.23;;;12.50;95.70;;;;;;4930694;29;20053;-57
2021/10/18 07:21:15;;;;;;;22.05;14.40;;;12.50;95.70;;;;;;4929199;29;20078;-57
2021/10/18 07:23:43;;;;;;;21.77;14.30;;;12.60;95.60;;;;;;4930577;29;20111;-55
2021/10/18 07:26:10;;;;;;;18.67;14.85;;;12.60;95.60;;;;;;4931483;29;20051;-63
2021/10/18 07:28:37;;;;;;;21.00;13.35;;;12.70;95.60;;;;;;4944202;28;20048;-58
2021/10/18 07:31:04;;;;;;;23.05;15.40;;;12.70;95.60;;;;;;4930361;29;20125;-61
2021/10/18 07:33:31;;;;;;;23.27;14.50;;;12.70;95.60;;;;;;4928783;28;20055;-60
2021/10/18 07:36:06;;;;;;;21.13;13.73;;;12.70;95.70;;;;;;4933894;29;20051;-59
2021/10/18 07:38:35;;;;;;;22.45;13.93;;;12.80;95.70;;;;;;4928924;29;20059;-58
2021/10/18 07:41:02;;;;;;;20.95;14.32;;;12.80;95.70;;;;;;4926997;29;20559;-57
2021/10/18 07:43:29;;;;;;;23.02;13.57;;;12.90;95.60;;;;;;4927816;29;20047;-59
2021/10/18 07:45:56;;;;;;;26.52;12.77;;;12.90;95.70;;;;;;4931870;29;20134;-55
2021/10/18 07:48:23;;;;;;;18.48;13.02;;;13.00;95.70;;;;;;4930552;29;20151;-54
2021/10/18 07:50:50;;;;;;;21.13;13.88;;;13.00;95.60;;;;;;4919086;29;20419;-54
2021/10/18 07:53:17;;;;;;;21.00;13.07;;;13.10;95.60;;;;;;4949032;28;20048;-56
2021/10/18 07:55:44;;;;;;;25.98;13.32;;;13.10;95.60;;;;;;4934151;29;20153;-55
2021/10/18 07:58:20;;;;;;;23.60;12.57;;;13.20;95.60;;;;;;4937287;28;20052;-54
2021/10/18 08:00:47;;;;;;;22.83;13.48;;;13.20;95.50;;;;;;4938052;29;20123;-54
2021/10/18 08:03:15;;;;;;;18.25;13.00;;;13.30;95.60;;;;;;4932751;28;20102;-57
2021/10/18 08:05:41;;;;;;;20.23;12.65;;;13.30;95.60;;;;;;4933040;29;20169;-57
2021/10/18 08:08:10;;;;;;;18.40;13.48;;;13.40;95.50;;;;;;4940825;28;20118;-54
2021/10/18 08:10:37;;;;;;;23.00;14.07;;;13.40;95.50;;;;;;4938719;28;20122;-56
2021/10/18 08:13:04;;;;;;;29.17;15.82;;;13.40;95.50;;;;;;4944372;28;20085;-55
2021/10/18 08:15:31;;;;;;;23.23;14.15;;;13.50;95.50;;;;;;4939692;29;20114;-55
2021/10/18 08:17:58;;;;;;;19.92;12.55;;;13.50;95.40;;;;;;4933807;28;20059;-55
2021/10/18 08:20:25;;;;;;;19.33;12.68;;;13.60;95.40;;;;;;4952260;28;20600;-55
2021/10/18 08:22:51;;;;;;;19.45;13.40;;;13.60;95.40;;;;;;4935839;28;20095;-54
2021/10/18 08:25:19;;;;;;;25.80;12.88;;;13.60;95.40;;;;;;4934426;29;20130;-53
2021/10/18 08:27:46;;;;;;;23.05;14.38;;;13.60;95.40;;;;;;4935045;29;20043;-55
2021/10/18 08:30:12;;;;;;;18.23;12.18;;;13.70;95.40;;;;;;4958182;28;20106;-53
2021/10/18 08:32:40;;;;;;;23.02;13.07;;;13.70;95.30;;;;;;4950934;28;20063;-55
2021/10/18 08:35:08;;;;;;;15.50;12.23;;;13.70;95.30;;;;;;4944621;28;20054;-55
2021/10/18 08:40:21;;;;;;;16.23;12.63;;;13.80;95.20;;;;;;4943716;28;20090;-55
2021/10/18 08:43:00;;;;;;;16.15;11.30;;;13.80;95.10;;;;;;4941592;29;20048;-54
2021/10/18 08:45:27;;;;;;;19.55;11.75;;;13.90;95.10;;;;;;4937000;29;20051;-56
2021/10/18 08:47:54;;;;;;;18.67;12.00;;;13.90;95.20;;;;;;4941682;29;20595;-57
2021/10/18 08:50:24;;;;;;;15.88;11.63;;;13.90;95.10;;;;;;4935355;29;20080;-55
2021/10/18 08:52:51;;;;;;;15.75;10.95;;;14.00;95.10;;;;;;4940884;29;20107;-55
2021/10/18 08:55:18;;;;;;;19.33;12.52;;;13.90;95.00;;;;;;4939751;29;20051;-56
2021/10/18 08:57:45;;;;;;;16.88;11.43;;;14.00;95.00;;;;;;4938361;29;20047;-55
2021/10/18 09:00:46;;;;;;;17.58;11.05;;;14.00;95.00;;;;;;4947183;28;20508;-55
2021/10/18 09:03:22;;;;;;;20.40;11.65;;;14.00;95.10;;;;;;4947789;28;20158;-57
2021/10/18 09:05:49;;;;;;;20.75;11.57;;;14.10;94.90;;;;;;4932474;29;20126;-56
2021/10/18 09:08:44;;;;;;;17.38;12.02;;;14.10;94.90;;;;;;4940246;29;20059;-54
2021/10/18 09:11:22;;;;;;;16.85;10.98;;;14.20;95.00;;;;;;4933986;29;20110;-56
2021/10/18 09:13:52;;;;;;;15.68;10.05;;;14.30;94.80;;;;;;4941141;29;20060;-55
2021/10/18 09:16:22;;;;;;;17.55;11.88;;;14.40;94.80;;;;;;4934654;29;20503;-55
2021/10/18 09:19:01;;;;;;;17.95;9.55;;;14.40;94.70;;;;;;4940651;29;20115;-55
2021/10/18 09:21:29;;;;;;;26.02;11.85;;;14.40;94.60;;;;;;4934565;29;20047;-53
2021/10/18 09:23:56;;;;;;;16.38;10.45;;;14.50;94.60;;;;;;4940526;29;20079;-56
2021/10/18 09:26:23;;;;;;;14.98;10.05;;;14.60;94.60;;;;;;4932335;29;20071;-55
2021/10/18 09:28:54;;;;;;;13.15;8.30;;;14.60;94.50;;;;;;4940036;29;20499;-56
2021/10/18 09:31:23;;;;;;;17.23;8.68;;;14.70;94.30;;;;;;4933156;29;20099;-55
2021/10/18 09:33:56;;;;;;;14.05;9.00;;;14.70;94.30;;;;;;4931557;29;20102;-55
2021/10/18 09:36:32;;;;;;;17.07;8.40;;;14.80;94.30;;;;;;4943886;28;20059;-54
2021/10/18 09:39:21;;;;;;;18.83;8.32;;;14.80;94.10;;;;;;4933538;29;20964;-56
2021/10/18 09:41:56;;;;;;;15.38;8.90;;;14.80;94.10;;;;;;4943812;29;20074;-54
2021/10/18 09:44:38;;;;;;;13.50;7.45;;;14.80;94.00;;;;;;4936520;29;20075;-56
2021/10/18 09:47:38;;;;;;;20.88;9.50;;;14.90;93.90;;;;;;4943383;29;20118;-55
2021/10/18 10:56:16;;;;;;;23.63;7.20;;;15.90;92.10;;;;;;4928883;29;20501;-52
2021/10/18 10:58:51;;;;;;;14.45;7.38;;;16.00;91.90;;;;;;4930858;29;20496;-54
2021/10/18 11:01:43;;;;;;;11.38;6.18;;;16.00;91.90;;;;;;4937504;29;20055;-52
2021/10/18 11:04:29;;;;;;;11.00;6.25;;;16.10;91.00;;;;;;4924787;29;20503;-56
2021/10/18 11:07:04;;;;;;;11.60;6.53;;;16.10;90.80;;;;;;4940401;29;20534;-54
2021/10/18 11:09:49;;;;;;;13.02;7.20;;;16.20;91.60;;;;;;4945874;28;20138;-58
2021/10/18 11:12:25;;;;;;;11.73;6.88;;;16.20;91.20;;;;;;4934848;29;20107;-54
2021/10/18 11:14:55;;;;;;;11.48;5.85;;;16.20;91.30;;;;;;4942794;29;20062;-56
2021/10/18 11:17:27;;;;;;;11.43;6.20;;;16.20;91.10;;;;;;4939765;29;20051;-56
2021/10/18 11:19:58;;;;;;;14.60;6.38;;;16.30;91.10;;;;;;4952422;28;20076;-56
2021/10/18 11:22:35;;;;;;;10.85;5.78;;;16.30;91.10;;;;;;4936979;29;20075;-54
2021/10/18 11:25:10;;;;;;;12.52;5.72;;;16.40;90.80;;;;;;4932189;29;20044;-56
2021/10/18 11:27:41;;;;;;;16.83;6.28;;;16.40;91.00;;;;;;4939580;29;20055;-56
2021/10/18 11:30:15;;;;;;;12.75;6.40;;;16.40;91.00;;;;;;4946188;28;20504;-56
2021/10/18 11:32:42;;;;;;;6.90;5.22;;;16.50;90.60;;;;;;4953656;28;20083;-54
2021/10/18 11:35:16;;;;;;;11.13;6.03;;;16.50;90.90;;;;;;4931963;29;20610;-56
2021/10/18 11:38:13;;;;;;;11.15;5.45;;;16.60;90.60;;;;;;4939790;29;20198;-57
2021/10/18 11:40:48;;;;;;;15.45;5.93;;;16.80;89.30;;;;;;4934798;28;20047;-57
2021/10/18 11:43:23;;;;;;;11.20;5.90;;;16.90;90.20;;;;;;4953860;28;20054;-55
2021/10/18 11:45:56;;;;;;;9.75;5.53;;;17.10;90.10;;;;;;4931943;29;20091;-54
2021/10/18 11:48:27;;;;;;;15.90;6.97;;;17.10;90.10;;;;;;4934966;28;20684;-54
2021/10/18 11:50:59;;;;;;;12.82;5.35;;;17.20;90.10;;;;;;4936034;29;20146;-56
2021/10/18 11:53:27;;;;;;;9.57;6.00;;;17.30;90.10;;;;;;4938511;29;20047;-56
2021/10/18 11:56:03;;;;;;;9.77;5.22;;;17.30;90.10;;;;;;4942873;29;20047;-55
2021/10/18 11:58:35;;;;;;;7.65;4.75;;;17.30;88.50;;;;;;4935521;29;20567;-55
2021/10/18 12:01:14;;;;;;;8.65;4.82;;;17.20;89.40;;;;;;4942721;29;20055;-55
2021/10/18 12:03:41;;;;;;;10.10;4.50;;;17.30;89.40;;;;;;4935065;29;20829;-56
2021/10/18 12:06:10;;;;;;;11.30;4.85;;;17.30;89.70;;;;;;4941881;29;20141;-54
2021/10/18 12:08:40;;;;;;;8.90;5.18;;;17.30;89.60;;;;;;4935415;29;20055;-55
2021/10/18 12:11:08;;;;;;;5.93;4.20;;;17.40;89.20;;;;;;4923028;29;20088;-55
2021/10/18 12:13:40;;;;;;;11.55;5.20;;;17.40;89.60;;;;;;4937184;29;20434;-57
2021/10/18 12:16:19;;;;;;;12.45;4.90;;;17.40;88.70;;;;;;4943016;29;20073;-55
2021/10/18 12:18:51;;;;;;;7.20;4.63;;;17.40;88.50;;;;;;4930685;28;20248;-56
2021/10/18 12:21:23;;;;;;;13.77;5.32;;;17.40;88.60;;;;;;4934543;29;20327;-54
2021/10/18 12:23:58;;;;;;;7.53;4.35;;;17.30;88.20;;;;;;4936908;28;20542;-55
2021/10/18 12:26:29;;;;;;;12.30;4.75;;;17.40;88.10;;;;;;4939736;28;20130;-57
2021/10/18 12:28:57;;;;;;;7.80;4.22;;;17.40;89.00;;;;;;4935444;29;20495;-56
2021/10/18 12:31:33;;;;;;;9.02;4.35;;;17.40;88.70;;;;;;4933744;28;20043;-55
2021/10/18 12:34:00;;;;;;;7.30;4.03;;;17.40;89.00;;;;;;4935578;29;20054;-57
2021/10/18 12:36:28;;;;;;;7.28;4.55;;;17.40;89.10;;;;;;4932752;29;20047;-56
2021/10/18 12:38:56;;;;;;;9.63;4.00;;;17.40;89.30;;;;;;4936469;28;20047;-62
2021/10/18 12:41:23;;;;;;;10.27;4.60;;;17.40;89.40;;;;;;4940628;29;20083;-56
2021/10/18 12:43:50;;;;;;;9.90;4.30;;;17.50;89.30;;;;;;4943024;28;20043;-55
2021/10/18 12:46:22;;;;;;;9.55;4.20;;;17.40;89.30;;;;;;4938420;29;20060;-55
2021/10/18 12:49:01;;;;;;;7.82;3.90;;;17.40;89.10;;;;;;4940589;29;20090;-54
2021/10/18 12:51:42;;;;;;;7.25;4.50;;;17.40;88.20;;;;;;4936114;29;20507;-56
2021/10/18 12:54:29;;;;;;;11.38;4.15;;;17.40;88.50;;;;;;4929531;29;20059;-55
2021/10/18 12:57:17;;;;;;;9.45;4.95;;;17.30;88.60;;;;;;4940940;28;20063;-56
2021/10/18 13:00:04;;;;;;;8.75;4.45;;;17.30;89.50;;;;;;4952085;28;20079;-54
2021/10/18 13:02:46;;;;;;;15.95;5.10;;;17.20;88.40;;;;;;4933234;29;20562;-57
2021/10/18 13:05:23;;;;;;;6.90;3.85;;;17.10;89.10;;;;;;4945185;28;20066;-56
2021/10/18 13:07:58;;;;;;;10.13;3.78;;;17.10;89.60;;;;;;4935384;29;20054;-55
2021/10/18 13:10:33;;;;;;;10.63;4.25;;;17.10;89.80;;;;;;4939212;29;20090;-55
2021/10/18 13:13:03;;;;;;;6.18;3.78;;;17.10;89.80;;;;;;4946938;28;20044;-60
2021/10/18 13:15:37;;;;;;;9.40;4.20;;;17.00;90.00;;;;;;4953111;28;20110;-56
2021/10/18 13:18:09;;;;;;;13.25;4.63;;;17.10;90.10;;;;;;4935279;29;20058;-56
2021/10/18 13:20:43;;;;;;;11.00;4.88;;;17.10;90.00;;;;;;4938569;29;20085;-59
2021/10/18 13:23:22;;;;;;;19.27;4.93;;;17.00;90.10;;;;;;4935674;28;20087;-56
2021/10/18 13:25:53;;;;;;;12.88;5.43;;;17.10;90.10;;;;;;4936066;28;20047;-55
2021/10/18 13:28:26;;;;;;;5.97;3.65;;;17.00;90.10;;;;;;4942082;29;20134;-58
2021/10/18 13:31:00;;;;;;;11.77;4.40;;;17.10;90.40;;;;;;4942044;29;20051;-56
2021/10/18 13:33:27;;;;;;;10.68;4.90;;;17.10;90.20;;;;;;4939481;29;20052;-53
2021/10/18 13:35:54;;;;;;;15.48;4.68;;;17.10;90.20;;;;;;4927501;29;20083;-56
2021/10/18 13:38:21;;;;;;;8.85;4.18;;;17.10;90.20;;;;;;4935365;29;20051;-55
2021/10/18 13:40:48;;;;;;;6.90;4.18;;;17.00;90.30;;;;;;4931465;29;20052;-55
2021/10/18 13:43:15;;;;;;;21.48;7.38;;;16.90;90.50;;;;;;4929738;29;20139;-54
2021/10/18 13:45:46;;;;;;;9.75;4.65;;;16.80;90.50;;;;;;4933544;28;20044;-55
2021/10/18 13:48:13;;;;;;;9.95;4.20;;;16.90;90.70;;;;;;4928329;29;20056;-55
2021/10/18 13:50:41;;;;;;;13.00;4.72;;;16.90;90.70;;;;;;4934690;29;20040;-54
2021/10/18 13:53:08;;;;;;;23.15;5.28;;;16.90;90.90;;;;;;4934399;29;20059;-52
2021/10/18 13:55:35;;;;;;;10.25;5.20;;;16.80;90.80;;;;;;4929302;29;20222;-56